sensor_id;sensor_type;location;lat;lon;timestamp;P1;durP1;ratioP1;P2;durP2;ratioP2
52432;SDS011;38352;53.244;6.594;2023-06-05T00:00:13;8.57;;;4.93;;
52432;SDS011;38352;53.244;6.594;2023-06-05T00:02:40;9.30;;;4.53;;
52432;SDS011;38352;53.244;6.594;2023-06-05T00:05:06;8.05;;;4.68;;
52432;SDS011;38352;53.244;6.594;2023-06-05T00:07:34;9.95;;;4.78;;
52432;SDS011;38352;53.244;6.594;2023-06-05T00:10:02;8.48;;;4.82;;
52432;SDS011;38352;53.244;6.594;2023-06-05T00:12:29;9.77;;;5.07;;
52432;SDS011;38352;53.244;6.594;2023-06-05T00:14:55;10.35;;;5.43;;
52432;SDS011;38352;53.244;6.594;2023-06-05T00:17:21;10.38;;;5.28;;
52432;SDS011;38352;53.244;6.594;2023-06-05T00:19:47;9.15;;;4.80;;
52432;SDS011;38352;53.244;6.594;2023-06-05T00:22:13;8.55;;;4.72;;
52432;SDS011;38352;53.244;6.594;2023-06-05T00:24:39;9.73;;;4.93;;
52432;SDS011;38352;53.244;6.594;2023-06-05T00:27:06;9.52;;;4.50;;
52432;SDS011;38352;53.244;6.594;2023-06-05T00:29:32;8.75;;;4.25;;
52432;SDS011;38352;53.244;6.594;2023-06-05T00:31:58;10.75;;;4.72;;
52432;SDS011;38352;53.244;6.594;2023-06-05T00:34:24;8.77;;;5.15;;
52432;SDS011;38352;53.244;6.594;2023-06-05T00:36:50;8.13;;;4.30;;
52432;SDS011;38352;53.244;6.594;2023-06-05T00:39:17;8.68;;;5.15;;
52432;SDS011;38352;53.244;6.594;2023-06-05T00:41:46;9.77;;;4.75;;
52432;SDS011;38352;53.244;6.594;2023-06-05T00:44:12;10.40;;;5.03;;
52432;SDS011;38352;53.244;6.594;2023-06-05T00:46:38;9.57;;;5.45;;
52432;SDS011;38352;53.244;6.594;2023-06-05T00:49:05;10.80;;;4.88;;
52432;SDS011;38352;53.244;6.594;2023-06-05T00:51:31;10.50;;;5.22;;
52432;SDS011;38352;53.244;6.594;2023-06-05T00:53:57;9.18;;;5.18;;
52432;SDS011;38352;53.244;6.594;2023-06-05T00:56:24;8.80;;;4.70;;
52432;SDS011;38352;53.244;6.594;2023-06-05T00:58:50;7.82;;;4.97;;
52432;SDS011;38352;53.244;6.594;2023-06-05T01:01:18;10.90;;;4.80;;
52432;SDS011;38352;53.244;6.594;2023-06-05T01:03:46;9.60;;;5.78;;
52432;SDS011;38352;53.244;6.594;2023-06-05T01:06:12;11.10;;;5.30;;
52432;SDS011;38352;53.244;6.594;2023-06-05T01:08:41;8.25;;;4.88;;
52432;SDS011;38352;53.244;6.594;2023-06-05T01:11:13;9.27;;;4.85;;
52432;SDS011;38352;53.244;6.594;2023-06-05T01:13:42;10.80;;;5.57;;
52432;SDS011;38352;53.244;6.594;2023-06-05T01:16:12;8.80;;;5.30;;
52432;SDS011;38352;53.244;6.594;2023-06-05T01:18:40;10.30;;;5.03;;
52432;SDS011;38352;53.244;6.594;2023-06-05T01:21:14;8.90;;;5.63;;
52432;SDS011;38352;53.244;6.594;2023-06-05T01:23:43;10.60;;;5.03;;
52432;SDS011;38352;53.244;6.594;2023-06-05T01:26:18;10.65;;;5.80;;
52432;SDS011;38352;53.244;6.594;2023-06-05T01:28:45;12.30;;;5.20;;
52432;SDS011;38352;53.244;6.594;2023-06-05T01:31:12;10.57;;;5.18;;
52432;SDS011;38352;53.244;6.594;2023-06-05T01:33:54;9.48;;;5.35;;
52432;SDS011;38352;53.244;6.594;2023-06-05T01:36:23;9.68;;;5.38;;
52432;SDS011;38352;53.244;6.594;2023-06-05T01:38:50;11.07;;;5.50;;
52432;SDS011;38352;53.244;6.594;2023-06-05T01:41:17;11.10;;;6.15;;
52432;SDS011;38352;53.244;6.594;2023-06-05T01:43:45;11.55;;;5.85;;
52432;SDS011;38352;53.244;6.594;2023-06-05T01:46:15;10.90;;;5.30;;
52432;SDS011;38352;53.244;6.594;2023-06-05T01:48:41;11.30;;;6.68;;
52432;SDS011;38352;53.244;6.594;2023-06-05T01:51:08;10.45;;;5.75;;
52432;SDS011;38352;53.244;6.594;2023-06-05T01:53:34;14.27;;;6.43;;
52432;SDS011;38352;53.244;6.594;2023-06-05T01:56:00;9.07;;;5.13;;
52432;SDS011;38352;53.244;6.594;2023-06-05T01:58:27;9.85;;;5.90;;
52432;SDS011;38352;53.244;6.594;2023-06-05T02:00:53;10.52;;;5.90;;
52432;SDS011;38352;53.244;6.594;2023-06-05T02:03:22;12.45;;;6.53;;
52432;SDS011;38352;53.244;6.594;2023-06-05T02:05:48;11.98;;;6.05;;
52432;SDS011;38352;53.244;6.594;2023-06-05T02:08:14;12.55;;;5.88;;
52432;SDS011;38352;53.244;6.594;2023-06-05T02:10:47;10.30;;;5.82;;
52432;SDS011;38352;53.244;6.594;2023-06-05T02:13:14;13.57;;;6.25;;
52432;SDS011;38352;53.244;6.594;2023-06-05T02:15:44;9.55;;;5.43;;
52432;SDS011;38352;53.244;6.594;2023-06-05T02:18:10;11.40;;;6.57;;
52432;SDS011;38352;53.244;6.594;2023-06-05T02:20:36;13.85;;;6.80;;
52432;SDS011;38352;53.244;6.594;2023-06-05T02:23:02;12.30;;;6.10;;
52432;SDS011;38352;53.244;6.594;2023-06-05T02:25:30;10.13;;;6.25;;
52432;SDS011;38352;53.244;6.594;2023-06-05T02:27:56;10.80;;;6.05;;
52432;SDS011;38352;53.244;6.594;2023-06-05T02:30:22;11.30;;;6.57;;
52432;SDS011;38352;53.244;6.594;2023-06-05T02:32:49;9.68;;;6.18;;
52432;SDS011;38352;53.244;6.594;2023-06-05T02:35:21;10.85;;;6.28;;
52432;SDS011;38352;53.244;6.594;2023-06-05T02:37:48;10.40;;;5.45;;
52432;SDS011;38352;53.244;6.594;2023-06-05T02:40:14;10.48;;;6.38;;
52432;SDS011;38352;53.244;6.594;2023-06-05T02:42:40;9.80;;;6.10;;
52432;SDS011;38352;53.244;6.594;2023-06-05T02:45:07;11.13;;;6.65;;
52432;SDS011;38352;53.244;6.594;2023-06-05T02:47:33;11.85;;;5.97;;
52432;SDS011;38352;53.244;6.594;2023-06-05T02:49:59;11.63;;;6.13;;
52432;SDS011;38352;53.244;6.594;2023-06-05T02:52:26;10.90;;;6.07;;
52432;SDS011;38352;53.244;6.594;2023-06-05T02:54:53;10.60;;;5.65;;
52432;SDS011;38352;53.244;6.594;2023-06-05T02:57:19;10.05;;;5.70;;
52432;SDS011;38352;53.244;6.594;2023-06-05T02:59:46;11.95;;;6.18;;
52432;SDS011;38352;53.244;6.594;2023-06-05T03:02:12;10.55;;;5.65;;
52432;SDS011;38352;53.244;6.594;2023-06-05T03:04:38;8.57;;;5.32;;
52432;SDS011;38352;53.244;6.594;2023-06-05T03:07:05;10.48;;;5.80;;
52432;SDS011;38352;53.244;6.594;2023-06-05T03:09:32;9.18;;;5.40;;
52432;SDS011;38352;53.244;6.594;2023-06-05T03:11:58;11.50;;;5.50;;
52432;SDS011;38352;53.244;6.594;2023-06-05T03:14:25;10.18;;;5.15;;
52432;SDS011;38352;53.244;6.594;2023-06-05T03:16:56;9.90;;;5.05;;
52432;SDS011;38352;53.244;6.594;2023-06-05T03:19:23;9.32;;;5.53;;
52432;SDS011;38352;53.244;6.594;2023-06-05T03:21:50;10.98;;;5.40;;
52432;SDS011;38352;53.244;6.594;2023-06-05T03:24:18;8.80;;;5.05;;
52432;SDS011;38352;53.244;6.594;2023-06-05T03:26:45;8.25;;;4.65;;
52432;SDS011;38352;53.244;6.594;2023-06-05T03:29:11;10.70;;;4.90;;
52432;SDS011;38352;53.244;6.594;2023-06-05T03:31:37;8.85;;;4.55;;
52432;SDS011;38352;53.244;6.594;2023-06-05T03:34:03;9.38;;;5.25;;
52432;SDS011;38352;53.244;6.594;2023-06-05T03:36:31;9.82;;;4.88;;
52432;SDS011;38352;53.244;6.594;2023-06-05T03:38:59;8.23;;;4.55;;
52432;SDS011;38352;53.244;6.594;2023-06-05T03:41:25;8.80;;;4.75;;
52432;SDS011;38352;53.244;6.594;2023-06-05T03:43:51;8.60;;;4.32;;
52432;SDS011;38352;53.244;6.594;2023-06-05T03:46:18;8.30;;;4.00;;
52432;SDS011;38352;53.244;6.594;2023-06-05T03:48:47;9.32;;;4.70;;
52432;SDS011;38352;53.244;6.594;2023-06-05T03:51:14;8.43;;;4.25;;
52432;SDS011;38352;53.244;6.594;2023-06-05T03:53:43;6.70;;;4.25;;
52432;SDS011;38352;53.244;6.594;2023-06-05T03:56:09;8.25;;;4.72;;
52432;SDS011;38352;53.244;6.594;2023-06-05T03:58:37;8.55;;;4.45;;
52432;SDS011;38352;53.244;6.594;2023-06-05T04:01:04;10.35;;;4.80;;
52432;SDS011;38352;53.244;6.594;2023-06-05T04:03:30;9.75;;;5.07;;
52432;SDS011;38352;53.244;6.594;2023-06-05T04:05:57;9.95;;;4.38;;
52432;SDS011;38352;53.244;6.594;2023-06-05T04:08:23;8.95;;;5.05;;
52432;SDS011;38352;53.244;6.594;2023-06-05T04:10:49;9.27;;;5.50;;
52432;SDS011;38352;53.244;6.594;2023-06-05T04:13:15;11.05;;;5.25;;
52432;SDS011;38352;53.244;6.594;2023-06-05T04:15:41;9.38;;;5.18;;
52432;SDS011;38352;53.244;6.594;2023-06-05T04:18:09;9.95;;;5.38;;
52432;SDS011;38352;53.244;6.594;2023-06-05T04:20:35;9.15;;;5.20;;
52432;SDS011;38352;53.244;6.594;2023-06-05T04:23:01;13.07;;;5.15;;
52432;SDS011;38352;53.244;6.594;2023-06-05T04:25:28;8.43;;;5.40;;
52432;SDS011;38352;53.244;6.594;2023-06-05T04:27:54;9.13;;;5.18;;
52432;SDS011;38352;53.244;6.594;2023-06-05T04:30:21;10.90;;;5.38;;
52432;SDS011;38352;53.244;6.594;2023-06-05T04:32:47;11.30;;;4.72;;
52432;SDS011;38352;53.244;6.594;2023-06-05T04:35:19;8.65;;;4.50;;
52432;SDS011;38352;53.244;6.594;2023-06-05T04:37:46;8.90;;;3.80;;
52432;SDS011;38352;53.244;6.594;2023-06-05T04:40:12;7.40;;;4.13;;
52432;SDS011;38352;53.244;6.594;2023-06-05T04:42:38;5.93;;;3.30;;
52432;SDS011;38352;53.244;6.594;2023-06-05T04:45:05;6.88;;;3.13;;
52432;SDS011;38352;53.244;6.594;2023-06-05T04:47:33;6.65;;;3.15;;
52432;SDS011;38352;53.244;6.594;2023-06-05T04:50:00;7.22;;;2.92;;
52432;SDS011;38352;53.244;6.594;2023-06-05T04:52:28;7.95;;;3.10;;
52432;SDS011;38352;53.244;6.594;2023-06-05T04:54:54;4.78;;;2.83;;
52432;SDS011;38352;53.244;6.594;2023-06-05T04:57:22;7.03;;;3.20;;
52432;SDS011;38352;53.244;6.594;2023-06-05T04:59:51;6.72;;;2.95;;
52432;SDS011;38352;53.244;6.594;2023-06-05T05:02:17;7.63;;;3.35;;
52432;SDS011;38352;53.244;6.594;2023-06-05T05:04:43;7.55;;;3.60;;
52432;SDS011;38352;53.244;6.594;2023-06-05T05:07:09;7.10;;;3.97;;
52432;SDS011;38352;53.244;6.594;2023-06-05T05:09:40;6.25;;;2.90;;
52432;SDS011;38352;53.244;6.594;2023-06-05T05:12:06;5.55;;;3.22;;
52432;SDS011;38352;53.244;6.594;2023-06-05T05:14:33;4.93;;;3.10;;
52432;SDS011;38352;53.244;6.594;2023-06-05T05:16:59;5.97;;;3.40;;
52432;SDS011;38352;53.244;6.594;2023-06-05T05:19:26;5.35;;;2.88;;
52432;SDS011;38352;53.244;6.594;2023-06-05T05:21:52;7.40;;;2.50;;
52432;SDS011;38352;53.244;6.594;2023-06-05T05:24:19;6.82;;;2.95;;
52432;SDS011;38352;53.244;6.594;2023-06-05T05:26:45;8.23;;;2.80;;
52432;SDS011;38352;53.244;6.594;2023-06-05T05:29:11;5.45;;;2.70;;
52432;SDS011;38352;53.244;6.594;2023-06-05T05:31:37;4.75;;;2.58;;
52432;SDS011;38352;53.244;6.594;2023-06-05T05:34:03;5.57;;;2.85;;
52432;SDS011;38352;53.244;6.594;2023-06-05T05:36:30;5.18;;;2.50;;
52432;SDS011;38352;53.244;6.594;2023-06-05T05:38:58;6.78;;;2.95;;
52432;SDS011;38352;53.244;6.594;2023-06-05T05:41:24;5.07;;;2.35;;
52432;SDS011;38352;53.244;6.594;2023-06-05T05:43:51;3.95;;;2.45;;
52432;SDS011;38352;53.244;6.594;2023-06-05T05:46:17;5.28;;;2.20;;
52432;SDS011;38352;53.244;6.594;2023-06-05T05:48:43;4.53;;;2.33;;
52432;SDS011;38352;53.244;6.594;2023-06-05T05:51:10;5.00;;;2.50;;
52432;SDS011;38352;53.244;6.594;2023-06-05T05:53:36;4.95;;;2.13;;
52432;SDS011;38352;53.244;6.594;2023-06-05T05:56:02;4.18;;;2.40;;
52432;SDS011;38352;53.244;6.594;2023-06-05T05:58:29;4.40;;;2.30;;
52432;SDS011;38352;53.244;6.594;2023-06-05T06:00:55;4.50;;;2.10;;
52432;SDS011;38352;53.244;6.594;2023-06-05T06:03:21;4.38;;;2.58;;
52432;SDS011;38352;53.244;6.594;2023-06-05T06:05:48;5.03;;;2.08;;
52432;SDS011;38352;53.244;6.594;2023-06-05T06:08:14;3.63;;;1.77;;
52432;SDS011;38352;53.244;6.594;2023-06-05T06:10:40;4.25;;;2.22;;
52432;SDS011;38352;53.244;6.594;2023-06-05T06:13:06;4.43;;;2.40;;
52432;SDS011;38352;53.244;6.594;2023-06-05T06:15:32;3.80;;;2.13;;
52432;SDS011;38352;53.244;6.594;2023-06-05T06:17:59;5.05;;;2.10;;
52432;SDS011;38352;53.244;6.594;2023-06-05T06:20:28;4.28;;;2.15;;
52432;SDS011;38352;53.244;6.594;2023-06-05T06:22:54;5.85;;;2.17;;
52432;SDS011;38352;53.244;6.594;2023-06-05T06:25:21;3.13;;;1.77;;
52432;SDS011;38352;53.244;6.594;2023-06-05T06:27:51;4.38;;;2.28;;
52432;SDS011;38352;53.244;6.594;2023-06-05T06:30:18;4.65;;;2.22;;
52432;SDS011;38352;53.244;6.594;2023-06-05T06:32:45;3.95;;;2.05;;
52432;SDS011;38352;53.244;6.594;2023-06-05T06:35:11;7.90;;;3.10;;
52432;SDS011;38352;53.244;6.594;2023-06-05T06:37:40;5.68;;;2.38;;
52432;SDS011;38352;53.244;6.594;2023-06-05T06:40:06;5.15;;;2.30;;
52432;SDS011;38352;53.244;6.594;2023-06-05T06:42:36;5.43;;;2.40;;
52432;SDS011;38352;53.244;6.594;2023-06-05T06:45:03;5.28;;;1.98;;
52432;SDS011;38352;53.244;6.594;2023-06-05T06:47:29;7.82;;;2.20;;
52432;SDS011;38352;53.244;6.594;2023-06-05T06:49:55;5.13;;;2.33;;
52432;SDS011;38352;53.244;6.594;2023-06-05T06:52:22;4.30;;;2.45;;
52432;SDS011;38352;53.244;6.594;2023-06-05T06:54:48;3.60;;;2.03;;
52432;SDS011;38352;53.244;6.594;2023-06-05T06:57:14;4.13;;;2.38;;
52432;SDS011;38352;53.244;6.594;2023-06-05T06:59:40;4.88;;;2.78;;
52432;SDS011;38352;53.244;6.594;2023-06-05T07:02:11;6.70;;;2.92;;
52432;SDS011;38352;53.244;6.594;2023-06-05T07:04:38;5.57;;;3.13;;
52432;SDS011;38352;53.244;6.594;2023-06-05T07:07:07;5.25;;;2.83;;
52432;SDS011;38352;53.244;6.594;2023-06-05T07:09:33;5.13;;;2.70;;
52432;SDS011;38352;53.244;6.594;2023-06-05T07:12:00;4.63;;;2.72;;
52432;SDS011;38352;53.244;6.594;2023-06-05T07:14:30;5.68;;;2.47;;
52432;SDS011;38352;53.244;6.594;2023-06-05T07:16:57;5.43;;;2.63;;
52432;SDS011;38352;53.244;6.594;2023-06-05T07:19:25;4.93;;;2.60;;
52432;SDS011;38352;53.244;6.594;2023-06-05T07:21:52;6.07;;;3.25;;
52432;SDS011;38352;53.244;6.594;2023-06-05T07:24:18;4.47;;;2.97;;
52432;SDS011;38352;53.244;6.594;2023-06-05T07:26:44;4.85;;;2.80;;
52432;SDS011;38352;53.244;6.594;2023-06-05T07:29:10;4.70;;;2.75;;
52432;SDS011;38352;53.244;6.594;2023-06-05T07:31:36;5.68;;;2.60;;
52432;SDS011;38352;53.244;6.594;2023-06-05T07:34:04;5.22;;;3.05;;
52432;SDS011;38352;53.244;6.594;2023-06-05T07:36:30;7.40;;;2.95;;
52432;SDS011;38352;53.244;6.594;2023-06-05T07:38:56;5.47;;;2.97;;
52432;SDS011;38352;53.244;6.594;2023-06-05T07:41:22;6.40;;;2.97;;
52432;SDS011;38352;53.244;6.594;2023-06-05T07:43:48;4.28;;;2.45;;
52432;SDS011;38352;53.244;6.594;2023-06-05T07:46:14;4.18;;;2.35;;
52432;SDS011;38352;53.244;6.594;2023-06-05T07:48:41;4.93;;;2.55;;
52432;SDS011;38352;53.244;6.594;2023-06-05T07:51:07;4.90;;;2.60;;
52432;SDS011;38352;53.244;6.594;2023-06-05T07:53:33;5.70;;;2.65;;
52432;SDS011;38352;53.244;6.594;2023-06-05T07:56:00;4.47;;;2.53;;
52432;SDS011;38352;53.244;6.594;2023-06-05T07:58:26;5.05;;;2.33;;
52432;SDS011;38352;53.244;6.594;2023-06-05T08:00:53;5.35;;;2.90;;
52432;SDS011;38352;53.244;6.594;2023-06-05T08:03:22;5.95;;;3.10;;
52432;SDS011;38352;53.244;6.594;2023-06-05T08:05:51;5.72;;;2.88;;
52432;SDS011;38352;53.244;6.594;2023-06-05T08:08:17;5.38;;;3.10;;
52432;SDS011;38352;53.244;6.594;2023-06-05T08:10:44;6.10;;;2.90;;
52432;SDS011;38352;53.244;6.594;2023-06-05T08:13:10;5.53;;;3.08;;
52432;SDS011;38352;53.244;6.594;2023-06-05T08:15:36;4.32;;;2.75;;
52432;SDS011;38352;53.244;6.594;2023-06-05T08:18:02;5.72;;;2.50;;
52432;SDS011;38352;53.244;6.594;2023-06-05T08:20:29;5.80;;;2.90;;
52432;SDS011;38352;53.244;6.594;2023-06-05T08:22:55;5.47;;;2.72;;
52432;SDS011;38352;53.244;6.594;2023-06-05T08:25:25;6.25;;;3.20;;
52432;SDS011;38352;53.244;6.594;2023-06-05T08:27:52;6.22;;;3.15;;
52432;SDS011;38352;53.244;6.594;2023-06-05T08:30:18;5.55;;;3.20;;
52432;SDS011;38352;53.244;6.594;2023-06-05T08:32:44;6.20;;;3.08;;
52432;SDS011;38352;53.244;6.594;2023-06-05T08:35:11;4.72;;;2.67;;
52432;SDS011;38352;53.244;6.594;2023-06-05T08:37:37;4.30;;;2.75;;
52432;SDS011;38352;53.244;6.594;2023-06-05T08:40:04;5.22;;;3.15;;
52432;SDS011;38352;53.244;6.594;2023-06-05T08:42:37;4.97;;;3.10;;
52432;SDS011;38352;53.244;6.594;2023-06-05T08:45:05;6.45;;;3.10;;
52432;SDS011;38352;53.244;6.594;2023-06-05T08:47:32;5.65;;;3.03;;
52432;SDS011;38352;53.244;6.594;2023-06-05T08:50:02;5.80;;;3.08;;
52432;SDS011;38352;53.244;6.594;2023-06-05T08:52:29;6.22;;;2.80;;
52432;SDS011;38352;53.244;6.594;2023-06-05T08:54:59;5.95;;;2.70;;
52432;SDS011;38352;53.244;6.594;2023-06-05T08:57:26;5.05;;;2.75;;
52432;SDS011;38352;53.244;6.594;2023-06-05T08:59:53;5.22;;;2.95;;
52432;SDS011;38352;53.244;6.594;2023-06-05T09:02:20;5.70;;;2.97;;
52432;SDS011;38352;53.244;6.594;2023-06-05T09:04:46;6.20;;;2.83;;
52432;SDS011;38352;53.244;6.594;2023-06-05T09:07:14;5.22;;;3.00;;
52432;SDS011;38352;53.244;6.594;2023-06-05T09:09:42;4.82;;;2.72;;
52432;SDS011;38352;53.244;6.594;2023-06-05T09:12:08;6.15;;;3.22;;
52432;SDS011;38352;53.244;6.594;2023-06-05T09:14:35;5.47;;;3.10;;
52432;SDS011;38352;53.244;6.594;2023-06-05T09:17:01;6.35;;;3.17;;
52432;SDS011;38352;53.244;6.594;2023-06-05T09:19:38;6.05;;;2.80;;
52432;SDS011;38352;53.244;6.594;2023-06-05T09:22:07;7.82;;;3.30;;
52432;SDS011;38352;53.244;6.594;2023-06-05T09:24:33;6.43;;;3.05;;
52432;SDS011;38352;53.244;6.594;2023-06-05T09:27:01;5.70;;;3.17;;
52432;SDS011;38352;53.244;6.594;2023-06-05T09:29:33;5.78;;;2.90;;
52432;SDS011;38352;53.244;6.594;2023-06-05T09:32:04;5.07;;;2.35;;
52432;SDS011;38352;53.244;6.594;2023-06-05T09:34:34;7.20;;;2.95;;
52432;SDS011;38352;53.244;6.594;2023-06-05T09:37:04;5.78;;;2.72;;
52432;SDS011;38352;53.244;6.594;2023-06-05T09:39:31;5.68;;;2.80;;
52432;SDS011;38352;53.244;6.594;2023-06-05T09:41:57;5.85;;;2.78;;
52432;SDS011;38352;53.244;6.594;2023-06-05T09:44:24;4.63;;;2.42;;
52432;SDS011;38352;53.244;6.594;2023-06-05T09:49:18;4.82;;;2.80;;
52432;SDS011;38352;53.244;6.594;2023-06-05T09:51:44;5.47;;;2.80;;
52432;SDS011;38352;53.244;6.594;2023-06-05T09:54:11;4.72;;;2.72;;
52432;SDS011;38352;53.244;6.594;2023-06-05T09:56:39;4.90;;;2.55;;
52432;SDS011;38352;53.244;6.594;2023-06-05T09:59:08;4.55;;;2.33;;
52432;SDS011;38352;53.244;6.594;2023-06-05T10:01:38;5.65;;;2.47;;
52432;SDS011;38352;53.244;6.594;2023-06-05T10:04:06;5.43;;;2.65;;
52432;SDS011;38352;53.244;6.594;2023-06-05T10:06:34;4.28;;;2.50;;
52432;SDS011;38352;53.244;6.594;2023-06-05T10:09:01;5.22;;;2.63;;
52432;SDS011;38352;53.244;6.594;2023-06-05T10:11:28;5.28;;;2.70;;
52432;SDS011;38352;53.244;6.594;2023-06-05T10:13:54;4.72;;;2.33;;
52432;SDS011;38352;53.244;6.594;2023-06-05T10:16:25;4.72;;;2.70;;
52432;SDS011;38352;53.244;6.594;2023-06-05T10:18:51;5.20;;;2.60;;
52432;SDS011;38352;53.244;6.594;2023-06-05T10:21:17;5.03;;;2.63;;
52432;SDS011;38352;53.244;6.594;2023-06-05T10:23:48;4.20;;;2.45;;
52432;SDS011;38352;53.244;6.594;2023-06-05T10:26:30;5.65;;;2.42;;
52432;SDS011;38352;53.244;6.594;2023-06-05T10:29:04;4.38;;;2.17;;
52432;SDS011;38352;53.244;6.594;2023-06-05T10:31:49;3.70;;;2.22;;
52432;SDS011;38352;53.244;6.594;2023-06-05T10:34:23;4.97;;;2.67;;
52432;SDS011;38352;53.244;6.594;2023-06-05T10:39:23;4.55;;;2.45;;
52432;SDS011;38352;53.244;6.594;2023-06-05T10:41:51;4.82;;;2.33;;
52432;SDS011;38352;53.244;6.594;2023-06-05T10:44:17;4.15;;;2.38;;
52432;SDS011;38352;53.244;6.594;2023-06-05T10:46:43;3.88;;;2.13;;
52432;SDS011;38352;53.244;6.594;2023-06-05T10:51:44;5.75;;;2.15;;
52432;SDS011;38352;53.244;6.594;2023-06-05T10:56:59;4.63;;;2.30;;
52432;SDS011;38352;53.244;6.594;2023-06-05T10:59:35;4.40;;;1.88;;
52432;SDS011;38352;53.244;6.594;2023-06-05T11:15:12;3.78;;;2.38;;
52432;SDS011;38352;53.244;6.594;2023-06-05T11:17:39;4.35;;;2.00;;
52432;SDS011;38352;53.244;6.594;2023-06-05T11:20:51;5.00;;;2.72;;
52432;SDS011;38352;53.244;6.594;2023-06-05T11:27:59;5.03;;;2.50;;
52432;SDS011;38352;53.244;6.594;2023-06-05T11:30:30;6.75;;;2.95;;
52432;SDS011;38352;53.244;6.594;2023-06-05T11:33:06;4.87;;;2.47;;
52432;SDS011;38352;53.244;6.594;2023-06-05T11:35:34;5.43;;;2.63;;
52432;SDS011;38352;53.244;6.594;2023-06-05T11:38:13;5.03;;;2.67;;
52432;SDS011;38352;53.244;6.594;2023-06-05T11:40:40;5.90;;;2.55;;
52432;SDS011;38352;53.244;6.594;2023-06-05T11:43:07;4.65;;;2.53;;
52432;SDS011;38352;53.244;6.594;2023-06-05T11:45:33;6.43;;;2.17;;
52432;SDS011;38352;53.244;6.594;2023-06-05T11:48:10;4.60;;;2.75;;
52432;SDS011;38352;53.244;6.594;2023-06-05T11:50:37;5.65;;;2.65;;
52432;SDS011;38352;53.244;6.594;2023-06-05T11:53:04;4.20;;;2.42;;
52432;SDS011;38352;53.244;6.594;2023-06-05T11:55:31;4.32;;;2.50;;
52432;SDS011;38352;53.244;6.594;2023-06-05T12:00:47;4.72;;;2.28;;
52432;SDS011;38352;53.244;6.594;2023-06-05T12:03:17;6.97;;;2.70;;
52432;SDS011;38352;53.244;6.594;2023-06-05T12:05:44;4.22;;;2.08;;
52432;SDS011;38352;53.244;6.594;2023-06-05T12:08:26;4.30;;;2.20;;
52432;SDS011;38352;53.244;6.594;2023-06-05T12:10:58;6.72;;;2.53;;
52432;SDS011;38352;53.244;6.594;2023-06-05T12:16:08;4.72;;;2.40;;
52432;SDS011;38352;53.244;6.594;2023-06-05T12:18:35;4.82;;;2.70;;
52432;SDS011;38352;53.244;6.594;2023-06-05T12:21:01;5.50;;;2.80;;
52432;SDS011;38352;53.244;6.594;2023-06-05T12:23:31;4.28;;;2.63;;
52432;SDS011;38352;53.244;6.594;2023-06-05T12:25:58;4.45;;;2.60;;
52432;SDS011;38352;53.244;6.594;2023-06-05T12:28:25;5.75;;;2.67;;
52432;SDS011;38352;53.244;6.594;2023-06-05T12:30:52;5.05;;;2.92;;
52432;SDS011;38352;53.244;6.594;2023-06-05T12:33:19;8.40;;;3.25;;
52432;SDS011;38352;53.244;6.594;2023-06-05T12:35:48;5.40;;;3.00;;
52432;SDS011;38352;53.244;6.594;2023-06-05T12:38:14;7.47;;;3.30;;
52432;SDS011;38352;53.244;6.594;2023-06-05T12:40:44;4.53;;;3.00;;
52432;SDS011;38352;53.244;6.594;2023-06-05T12:43:16;6.78;;;3.05;;
52432;SDS011;38352;53.244;6.594;2023-06-05T12:45:43;5.50;;;3.20;;
52432;SDS011;38352;53.244;6.594;2023-06-05T12:48:09;7.05;;;3.08;;
52432;SDS011;38352;53.244;6.594;2023-06-05T12:50:37;6.70;;;3.15;;
52432;SDS011;38352;53.244;6.594;2023-06-05T12:53:06;6.03;;;3.17;;
52432;SDS011;38352;53.244;6.594;2023-06-05T12:55:32;6.00;;;3.65;;
52432;SDS011;38352;53.244;6.594;2023-06-05T12:57:58;8.07;;;3.13;;
52432;SDS011;38352;53.244;6.594;2023-06-05T13:00:25;5.70;;;3.33;;
52432;SDS011;38352;53.244;6.594;2023-06-05T13:02:51;7.10;;;3.20;;
52432;SDS011;38352;53.244;6.594;2023-06-05T13:05:17;8.38;;;3.85;;
52432;SDS011;38352;53.244;6.594;2023-06-05T13:07:43;7.32;;;3.70;;
52432;SDS011;38352;53.244;6.594;2023-06-05T13:10:09;7.57;;;3.40;;
52432;SDS011;38352;53.244;6.594;2023-06-05T13:12:38;5.60;;;3.17;;
52432;SDS011;38352;53.244;6.594;2023-06-05T13:15:05;8.05;;;3.67;;
52432;SDS011;38352;53.244;6.594;2023-06-05T13:17:34;7.28;;;4.20;;
52432;SDS011;38352;53.244;6.594;2023-06-05T13:20:03;6.93;;;4.10;;
52432;SDS011;38352;53.244;6.594;2023-06-05T13:22:33;9.43;;;4.15;;
52432;SDS011;38352;53.244;6.594;2023-06-05T13:25:00;6.20;;;3.83;;
52432;SDS011;38352;53.244;6.594;2023-06-05T13:27:27;7.32;;;3.92;;
52432;SDS011;38352;53.244;6.594;2023-06-05T13:29:53;10.48;;;3.55;;
52432;SDS011;38352;53.244;6.594;2023-06-05T13:32:19;7.15;;;3.67;;
52432;SDS011;38352;53.244;6.594;2023-06-05T13:34:45;7.90;;;3.30;;
52432;SDS011;38352;53.244;6.594;2023-06-05T13:37:12;6.68;;;3.55;;
52432;SDS011;38352;53.244;6.594;2023-06-05T13:39:38;6.60;;;4.30;;
52432;SDS011;38352;53.244;6.594;2023-06-05T13:42:04;6.68;;;3.97;;
52432;SDS011;38352;53.244;6.594;2023-06-05T13:44:30;7.80;;;3.70;;
52432;SDS011;38352;53.244;6.594;2023-06-05T13:46:56;6.63;;;3.70;;
52432;SDS011;38352;53.244;6.594;2023-06-05T13:49:23;6.82;;;3.50;;
52432;SDS011;38352;53.244;6.594;2023-06-05T13:51:49;8.13;;;3.83;;
52432;SDS011;38352;53.244;6.594;2023-06-05T13:54:15;8.23;;;3.95;;
52432;SDS011;38352;53.244;6.594;2023-06-05T13:56:41;7.22;;;4.00;;
52432;SDS011;38352;53.244;6.594;2023-06-05T13:59:07;7.22;;;4.00;;
52432;SDS011;38352;53.244;6.594;2023-06-05T14:01:33;8.02;;;4.30;;
52432;SDS011;38352;53.244;6.594;2023-06-05T14:03:59;6.70;;;4.03;;
52432;SDS011;38352;53.244;6.594;2023-06-05T14:06:25;6.15;;;3.55;;
52432;SDS011;38352;53.244;6.594;2023-06-05T14:08:51;7.35;;;4.20;;
52432;SDS011;38352;53.244;6.594;2023-06-05T14:11:17;6.72;;;3.53;;
52432;SDS011;38352;53.244;6.594;2023-06-05T14:13:43;5.95;;;4.03;;
52432;SDS011;38352;53.244;6.594;2023-06-05T14:16:10;7.93;;;4.00;;
52432;SDS011;38352;53.244;6.594;2023-06-05T14:18:37;7.50;;;4.05;;
52432;SDS011;38352;53.244;6.594;2023-06-05T14:21:04;8.77;;;4.47;;
52432;SDS011;38352;53.244;6.594;2023-06-05T14:23:30;8.57;;;4.00;;
52432;SDS011;38352;53.244;6.594;2023-06-05T14:25:56;9.52;;;4.22;;
52432;SDS011;38352;53.244;6.594;2023-06-05T14:28:22;8.23;;;4.25;;
52432;SDS011;38352;53.244;6.594;2023-06-05T14:30:48;7.00;;;4.30;;
52432;SDS011;38352;53.244;6.594;2023-06-05T14:33:15;8.57;;;3.92;;
52432;SDS011;38352;53.244;6.594;2023-06-05T14:35:44;7.35;;;4.32;;
52432;SDS011;38352;53.244;6.594;2023-06-05T14:38:10;8.90;;;4.15;;
52432;SDS011;38352;53.244;6.594;2023-06-05T14:40:39;6.82;;;3.60;;
52432;SDS011;38352;53.244;6.594;2023-06-05T14:43:06;7.22;;;4.10;;
52432;SDS011;38352;53.244;6.594;2023-06-05T14:45:32;7.80;;;4.07;;
52432;SDS011;38352;53.244;6.594;2023-06-05T14:47:58;10.40;;;4.10;;
52432;SDS011;38352;53.244;6.594;2023-06-05T14:50:24;9.10;;;4.50;;
52432;SDS011;38352;53.244;6.594;2023-06-05T14:52:50;6.97;;;3.85;;
52432;SDS011;38352;53.244;6.594;2023-06-05T14:55:16;8.45;;;4.40;;
52432;SDS011;38352;53.244;6.594;2023-06-05T14:57:43;7.25;;;4.30;;
52432;SDS011;38352;53.244;6.594;2023-06-05T15:00:09;7.72;;;4.18;;
52432;SDS011;38352;53.244;6.594;2023-06-05T15:02:35;8.40;;;4.38;;
52432;SDS011;38352;53.244;6.594;2023-06-05T15:05:05;9.10;;;4.47;;
52432;SDS011;38352;53.244;6.594;2023-06-05T15:07:34;10.05;;;5.10;;
52432;SDS011;38352;53.244;6.594;2023-06-05T15:10:02;8.48;;;4.45;;
52432;SDS011;38352;53.244;6.594;2023-06-05T15:12:28;7.68;;;4.35;;
52432;SDS011;38352;53.244;6.594;2023-06-05T15:14:54;10.02;;;4.40;;
52432;SDS011;38352;53.244;6.594;2023-06-05T15:17:20;7.25;;;4.00;;
52432;SDS011;38352;53.244;6.594;2023-06-05T15:19:46;8.02;;;4.18;;